Time;durP1;ratioP1;P1;durP2;ratioP2;P2;SDS_P1;SDS_P2;PMS_P1;PMS_P2;Temp;Humidity;BMP_temperature;BMP_pressure;BME280_temperature;BME280_humidity;BME280_pressure;Samples;Min_cycle;Max_cycle;Signal;HPM_P1;HPM_P2
2022/07/26 00:01:12;;;;;;;5.72;1.98;;;20.70;99.90;;;;;;5115178;28;20669;-50
2022/07/26 00:03:37;;;;;;;4.90;1.48;;;20.60;99.90;;;;;;5115044;28;20168;-46
2022/07/26 00:06:03;;;;;;;1.92;1.20;;;20.60;99.90;;;;;;5115241;28;20165;-47
2022/07/26 00:08:29;;;;;;;3.38;1.60;;;20.50;99.90;;;;;;5114836;28;20534;-47
2022/07/26 00:10:54;;;;;;;6.10;1.40;;;20.40;99.90;;;;;;5114860;28;20227;-47
2022/07/26 00:13:20;;;;;;;2.90;1.23;;;20.30;99.90;;;;;;5115370;28;20257;-46
2022/07/26 00:15:47;;;;;;;2.85;1.50;;;20.30;99.90;;;;;;5115023;28;20169;-53
2022/07/26 00:18:14;;;;;;;3.58;1.50;;;20.20;99.90;;;;;;5114957;28;20255;-49
2022/07/26 00:20:40;;;;;;;2.97;1.40;;;20.30;99.90;;;;;;5115181;28;20591;-50
2022/07/26 00:23:06;;;;;;;1.55;1.25;;;20.20;99.90;;;;;;5114933;28;20185;-46
2022/07/26 00:25:32;;;;;;;2.13;1.25;;;20.20;99.90;;;;;;5114868;28;20247;-47
2022/07/26 00:27:58;;;;;;;4.93;1.58;;;20.00;99.90;;;;;;5114776;28;20184;-48
2022/07/26 00:30:24;;;;;;;4.85;1.42;;;19.90;99.90;;;;;;5113714;28;20222;-45
2022/07/26 00:32:51;;;;;;;3.50;1.60;;;19.90;99.90;;;;;;5114919;28;20181;-49
2022/07/26 00:35:17;;;;;;;2.60;1.23;;;19.80;99.90;;;;;;5114929;28;20169;-46
2022/07/26 00:37:43;;;;;;;4.45;1.20;;;19.80;99.90;;;;;;5114609;28;20169;-52
2022/07/26 00:40:09;;;;;;;4.82;1.50;;;19.90;99.90;;;;;;5114555;28;20169;-49
2022/07/26 00:42:35;;;;;;;3.67;1.20;;;19.80;99.90;;;;;;5114475;28;20177;-45
2022/07/26 00:45:02;;;;;;;1.48;1.10;;;19.80;99.90;;;;;;5114481;28;20291;-46
2022/07/26 00:47:27;;;;;;;4.72;1.70;;;19.70;99.90;;;;;;5114158;28;20169;-47
2022/07/26 00:49:53;;;;;;;4.03;1.60;;;19.70;99.90;;;;;;5114084;28;20290;-46
2022/07/26 00:52:19;;;;;;;1.88;0.98;;;19.60;99.90;;;;;;5114653;28;20163;-49
2022/07/26 00:54:47;;;;;;;5.95;1.77;;;19.60;99.90;;;;;;5114443;28;20295;-46
2022/07/26 00:57:14;;;;;;;5.43;1.55;;;19.70;99.90;;;;;;5096540;28;20165;-48
2022/07/26 00:59:40;;;;;;;1.98;1.25;;;19.50;99.90;;;;;;5114099;28;20179;-46
2022/07/26 01:02:07;;;;;;;3.40;1.50;;;19.50;99.90;;;;;;5114178;28;20688;-48
2022/07/26 01:04:34;;;;;;;5.03;1.60;;;19.50;99.90;;;;;;5114061;28;20165;-46
2022/07/26 01:07:00;;;;;;;6.80;1.83;;;19.60;99.90;;;;;;5114028;28;20165;-47
2022/07/26 01:09:26;;;;;;;3.47;1.80;;;19.50;99.90;;;;;;5113822;28;20161;-48
2022/07/26 01:11:51;;;;;;;3.17;1.58;;;19.40;99.90;;;;;;5114042;28;20216;-46
2022/07/26 01:14:21;;;;;;;4.85;1.83;;;19.40;99.90;;;;;;5113752;28;20289;-48
2022/07/26 01:16:47;;;;;;;4.80;1.27;;;19.40;99.90;;;;;;5114107;28;20191;-46
2022/07/26 01:19:13;;;;;;;6.70;1.42;;;19.40;99.90;;;;;;5113699;28;20160;-46
2022/07/26 01:21:39;;;;;;;3.75;1.52;;;19.40;99.90;;;;;;5113797;28;20167;-46
2022/07/26 01:24:05;;;;;;;4.97;1.60;;;19.30;99.90;;;;;;5113707;28;20160;-45
2022/07/26 01:26:31;;;;;;;4.57;1.55;;;19.20;99.90;;;;;;5113968;28;20540;-52
2022/07/26 01:28:56;;;;;;;3.28;1.60;;;19.20;99.90;;;;;;5113606;28;20161;-53
2022/07/26 01:31:22;;;;;;;6.57;1.83;;;19.10;99.90;;;;;;5113842;28;20524;-48
2022/07/26 01:33:49;;;;;;;3.97;1.60;;;19.00;99.90;;;;;;5113728;28;20196;-52
2022/07/26 01:36:14;;;;;;;3.15;1.48;;;19.00;99.90;;;;;;5113473;28;20243;-53
2022/07/26 01:38:40;;;;;;;6.40;1.70;;;19.00;99.90;;;;;;5095096;28;20263;-52
2022/07/26 01:41:06;;;;;;;5.13;1.60;;;19.00;99.90;;;;;;5113067;28;20164;-52
2022/07/26 01:43:31;;;;;;;4.75;2.08;;;19.00;99.90;;;;;;5113221;28;20221;-53
2022/07/26 01:45:57;;;;;;;5.35;1.83;;;18.90;99.90;;;;;;5113282;28;20253;-53
2022/07/26 01:48:23;;;;;;;5.20;1.58;;;18.90;99.90;;;;;;5113515;28;20157;-45
2022/07/26 01:50:49;;;;;;;7.75;2.15;;;18.80;99.90;;;;;;5113753;28;20570;-54
2022/07/26 01:53:14;;;;;;;3.78;1.52;;;18.80;99.90;;;;;;5113093;28;20200;-50
2022/07/26 01:55:40;;;;;;;6.32;1.80;;;18.90;99.90;;;;;;5113130;28;20164;-48
2022/07/26 01:58:07;;;;;;;5.03;1.80;;;18.80;99.90;;;;;;5113055;28;20535;-53
2022/07/26 02:00:33;;;;;;;3.17;1.65;;;18.70;99.90;;;;;;5113123;28;20674;-53
2022/07/26 02:02:59;;;;;;;6.75;1.83;;;18.70;99.90;;;;;;5112926;28;20574;-53
2022/07/26 02:05:25;;;;;;;6.60;2.05;;;18.70;99.90;;;;;;5113172;28;20173;-53
2022/07/26 02:07:51;;;;;;;6.60;1.80;;;18.60;99.90;;;;;;5113234;28;20157;-52
2022/07/26 02:10:17;;;;;;;5.03;2.00;;;18.70;99.90;;;;;;5112631;28;20233;-54
2022/07/26 02:12:42;;;;;;;5.72;2.17;;;18.60;99.90;;;;;;5113030;28;20178;-53
2022/07/26 02:15:09;;;;;;;9.20;2.40;;;18.60;99.90;;;;;;5094558;28;20282;-51
2022/07/26 02:17:35;;;;;;;6.03;1.90;;;18.70;99.90;;;;;;5112774;28;20159;-49
2022/07/26 02:20:01;;;;;;;3.90;1.90;;;18.70;99.90;;;;;;5112782;28;20169;-54
2022/07/26 02:22:26;;;;;;;6.18;1.80;;;18.70;99.90;;;;;;5112653;28;20604;-45
2022/07/26 02:24:52;;;;;;;4.20;1.90;;;18.70;99.90;;;;;;5112984;28;20169;-49
2022/07/26 02:27:19;;;;;;;2.95;1.73;;;18.60;99.90;;;;;;5094583;28;20173;-49
2022/07/26 02:29:44;;;;;;;4.70;1.58;;;18.70;99.90;;;;;;5112860;28;20535;-51
2022/07/26 02:32:10;;;;;;;6.00;1.90;;;18.70;99.90;;;;;;5112510;28;20179;-50
2022/07/26 02:34:36;;;;;;;8.13;2.47;;;18.70;99.90;;;;;;5112426;28;20287;-47
2022/07/26 02:37:02;;;;;;;6.70;2.17;;;18.60;99.90;;;;;;5112486;28;20667;-49
2022/07/26 02:39:28;;;;;;;7.60;1.85;;;18.60;99.90;;;;;;5112538;28;20168;-46
2022/07/26 02:41:55;;;;;;;6.00;2.20;;;18.60;99.90;;;;;;5112406;28;20164;-49
2022/07/26 02:44:22;;;;;;;7.30;1.80;;;18.50;99.90;;;;;;5112703;28;20646;-52
2022/07/26 02:46:48;;;;;;;4.93;1.90;;;18.50;99.90;;;;;;5112527;28;20255;-48
2022/07/26 02:49:14;;;;;;;7.72;2.30;;;18.40;99.90;;;;;;5111889;28;20637;-48
2022/07/26 02:51:39;;;;;;;6.13;2.10;;;18.40;99.90;;;;;;5112366;28;20173;-50
2022/07/26 02:54:05;;;;;;;8.95;2.15;;;18.50;99.90;;;;;;5115475;28;20682;-47
2022/07/26 02:56:31;;;;;;;5.60;2.22;;;18.30;99.90;;;;;;5116860;28;20171;-50
2022/07/26 02:58:56;;;;;;;6.85;2.17;;;18.30;99.90;;;;;;5116728;28;20500;-48
2022/07/26 03:01:22;;;;;;;8.63;2.13;;;18.30;99.90;;;;;;5116768;28;20168;-48
2022/07/26 03:03:48;;;;;;;12.15;2.05;;;17.40;99.90;;;;;;5116616;28;20643;-49
2022/07/26 03:06:14;;;;;;;8.27;2.03;;;18.30;99.90;;;;;;5116060;28;20192;-49
2022/07/26 03:08:39;;;;;;;6.55;1.98;;;18.30;99.90;;;;;;5116186;28;20179;-46
2022/07/26 03:11:05;;;;;;;7.40;2.00;;;18.20;99.90;;;;;;5116020;28;20287;-46
2022/07/26 03:13:31;;;;;;;12.35;2.95;;;18.30;99.90;;;;;;5116384;28;20200;-46
2022/07/26 03:15:57;;;;;;;7.97;1.90;;;18.20;99.90;;;;;;5116165;28;20160;-45
2022/07/26 03:18:22;;;;;;;7.60;2.40;;;18.30;99.90;;;;;;5116071;28;20467;-44
2022/07/26 03:20:48;;;;;;;7.45;2.20;;;18.30;99.90;;;;;;5116349;28;20172;-47
2022/07/26 03:23:15;;;;;;;5.25;2.05;;;18.40;99.90;;;;;;5116284;28;20300;-45
2022/07/26 03:25:41;;;;;;;9.68;2.45;;;18.40;99.90;;;;;;5115970;28;20251;-45
2022/07/26 03:28:06;;;;;;;8.05;2.40;;;18.50;99.90;;;;;;5115611;28;20252;-46
2022/07/26 03:30:32;;;;;;;8.77;2.50;;;18.50;99.90;;;;;;5116030;28;20176;-47
2022/07/26 03:32:58;;;;;;;7.90;2.25;;;18.50;99.90;;;;;;5115783;28;20193;-46
2022/07/26 03:35:24;;;;;;;14.38;3.13;;;18.50;99.90;;;;;;5115706;28;20169;-46
2022/07/26 03:37:50;;;;;;;6.55;2.10;;;18.60;99.90;;;;;;5115869;28;20160;-47
2022/07/26 03:40:16;;;;;;;7.43;1.98;;;18.60;99.90;;;;;;5115735;28;20169;-46
2022/07/26 03:42:46;;;;;;;10.95;2.50;;;18.70;99.90;;;;;;5115923;28;20620;-47
2022/07/26 03:45:13;;;;;;;7.90;2.47;;;18.60;99.90;;;;;;5115653;28;20244;-46
2022/07/26 03:47:39;;;;;;;10.00;2.60;;;18.70;99.90;;;;;;5115626;28;20168;-45
2022/07/26 03:50:06;;;;;;;6.22;2.30;;;18.60;99.90;;;;;;5115500;28;20165;-45
2022/07/26 03:52:32;;;;;;;8.68;2.85;;;18.60;99.90;;;;;;5115765;28;20196;-46
2022/07/26 03:54:58;;;;;;;6.65;2.38;;;18.80;99.90;;;;;;5115046;28;20213;-45
2022/07/26 03:57:24;;;;;;;13.55;2.67;;;18.80;99.90;;;;;;5115422;28;20169;-45
2022/07/26 03:59:49;;;;;;;8.82;2.53;;;18.60;99.90;;;;;;5115688;28;20197;-48
2022/07/26 04:02:15;;;;;;;8.43;2.60;;;18.70;99.90;;;;;;5115554;28;20199;-47
2022/07/26 04:04:40;;;;;;;5.30;2.40;;;18.70;99.90;;;;;;5115207;28;20253;-47
2022/07/26 04:07:06;;;;;;;8.55;2.60;;;18.80;99.90;;;;;;5115113;28;20168;-45
2022/07/26 04:09:32;;;;;;;8.55;2.40;;;18.70;99.90;;;;;;5115160;28;20157;-45
2022/07/26 04:11:57;;;;;;;6.68;2.47;;;18.70;99.90;;;;;;5114351;28;20285;-44
2022/07/26 04:14:23;;;;;;;9.10;2.55;;;18.80;99.90;;;;;;5114641;28;20238;-44
2022/07/26 04:16:48;;;;;;;6.85;2.72;;;18.80;99.90;;;;;;5115603;28;20165;-44
2022/07/26 04:19:14;;;;;;;9.38;2.70;;;18.90;99.90;;;;;;5114941;28;20168;-45
2022/07/26 04:21:39;;;;;;;10.10;2.65;;;18.90;99.90;;;;;;5114430;28;20169;-44
2022/07/26 04:24:06;;;;;;;11.73;2.85;;;18.90;99.90;;;;;;5114881;28;20169;-46
2022/07/26 04:26:31;;;;;;;7.65;2.58;;;18.80;99.90;;;;;;5115178;28;20497;-45
2022/07/26 04:28:57;;;;;;;8.75;2.42;;;18.80;99.90;;;;;;5114758;28;20172;-45
2022/07/26 04:31:23;;;;;;;9.25;3.05;;;18.80;99.90;;;;;;5114678;28;20168;-44
2022/07/26 04:33:50;;;;;;;12.32;3.17;;;18.70;99.90;;;;;;5115082;28;20208;-45
2022/07/26 04:36:16;;;;;;;8.50;2.85;;;18.70;99.90;;;;;;5114847;28;20636;-46
2022/07/26 04:38:42;;;;;;;9.52;3.20;;;18.80;99.90;;;;;;5114379;28;20178;-45
2022/07/26 04:41:07;;;;;;;13.00;3.15;;;18.80;99.90;;;;;;5114468;28;20161;-44
2022/07/26 04:43:33;;;;;;;7.05;2.80;;;18.80;99.90;;;;;;5114499;28;20247;-45
2022/07/26 04:45:59;;;;;;;10.48;3.30;;;18.80;99.90;;;;;;5114448;28;20192;-44
2022/07/26 04:48:25;;;;;;;9.95;2.72;;;18.90;99.90;;;;;;5114334;28;20255;-53
2022/07/26 04:50:51;;;;;;;9.00;3.10;;;18.80;99.90;;;;;;5114982;28;20285;-53
2022/07/26 04:53:16;;;;;;;9.40;3.03;;;18.90;99.90;;;;;;5115043;28;20204;-53
2022/07/26 04:55:42;;;;;;;9.45;3.22;;;18.80;99.90;;;;;;5114338;28;20168;-54
2022/07/26 04:58:08;;;;;;;17.35;3.40;;;18.90;99.90;;;;;;5114178;28;20171;-53
2022/07/26 05:00:34;;;;;;;10.02;3.22;;;19.00;99.90;;;;;;5113999;28;20168;-54
2022/07/26 05:03:00;;;;;;;9.13;3.15;;;18.80;99.90;;;;;;5113876;28;20211;-53
2022/07/26 05:05:28;;;;;;;14.63;3.47;;;18.90;99.90;;;;;;5113950;28;20211;-54
2022/07/26 05:07:56;;;;;;;11.63;2.97;;;18.90;99.90;;;;;;5113847;28;20165;-54
2022/07/26 05:10:31;;;;;;;14.13;3.67;;;18.90;99.90;;;;;;5113640;28;20404;-47
2022/07/26 05:12:57;;;;;;;15.93;3.47;;;19.00;99.90;;;;;;5113778;28;20156;-53
2022/07/26 05:15:23;;;;;;;11.02;3.13;;;19.00;99.90;;;;;;5113522;28;20187;-50
2022/07/26 05:17:48;;;;;;;9.00;3.25;;;18.90;99.90;;;;;;5114177;28;20221;-51
2022/07/26 05:20:15;;;;;;;20.08;4.15;;;19.00;99.90;;;;;;5113752;28;20214;-55
2022/07/26 05:22:41;;;;;;;11.43;2.97;;;19.00;99.90;;;;;;5113807;28;20642;-55
2022/07/26 05:25:08;;;;;;;10.98;3.15;;;19.00;99.90;;;;;;5113580;28;20169;-54
2022/07/26 05:27:34;;;;;;;14.73;3.25;;;19.00;99.90;;;;;;5113686;28;20184;-55
2022/07/26 05:29:59;;;;;;;12.35;3.47;;;19.10;99.90;;;;;;5113542;28;20165;-54
2022/07/26 05:32:26;;;;;;;11.32;3.92;;;19.00;99.90;;;;;;5113585;28;20164;-55
2022/07/26 05:34:52;;;;;;;15.20;3.45;;;19.00;99.90;;;;;;5113376;28;20227;-55
2022/07/26 05:37:18;;;;;;;13.20;3.60;;;19.00;99.90;;;;;;5095646;28;20662;-54
2022/07/26 05:39:43;;;;;;;14.88;4.07;;;19.10;99.90;;;;;;5113415;28;20173;-51
2022/07/26 05:42:09;;;;;;;9.63;3.88;;;19.00;99.90;;;;;;5113394;28;20176;-52
2022/07/26 05:44:34;;;;;;;12.65;4.15;;;19.10;99.90;;;;;;5113313;28;20692;-53
2022/07/26 05:47:00;;;;;;;17.17;3.47;;;19.00;99.90;;;;;;5113256;28;20171;-50
2022/07/26 05:49:25;;;;;;;9.15;3.05;;;19.00;99.90;;;;;;5113227;28;20173;-52
2022/07/26 05:51:51;;;;;;;11.68;3.72;;;19.00;99.90;;;;;;5113170;28;20533;-45
2022/07/26 05:54:19;;;;;;;12.70;3.40;;;19.10;99.90;;;;;;5113469;28;20667;-50
2022/07/26 05:56:45;;;;;;;11.57;3.50;;;19.10;99.90;;;;;;5113019;28;20700;-49
2022/07/26 05:59:10;;;;;;;11.95;3.97;;;19.10;99.90;;;;;;5113003;28;20200;-53
2022/07/26 06:01:36;;;;;;;17.98;4.32;;;19.10;99.90;;;;;;5112869;28;20168;-52
2022/07/26 06:04:02;;;;;;;11.32;3.15;;;19.10;99.90;;;;;;5112962;28;20192;-48
2022/07/26 06:06:27;;;;;;;10.73;3.30;;;19.00;99.90;;;;;;5113164;28;20200;-52
2022/07/26 06:08:53;;;;;;;12.55;3.42;;;19.10;99.90;;;;;;5112709;28;20168;-52
2022/07/26 06:11:19;;;;;;;17.05;3.40;;;19.10;99.90;;;;;;5113097;28;20212;-54
2022/07/26 06:13:44;;;;;;;13.70;3.42;;;19.10;99.90;;;;;;5112784;28;20647;-50
2022/07/26 06:16:10;;;;;;;12.32;3.15;;;19.10;99.90;;;;;;5128496;27;20196;-51
2022/07/26 06:18:35;;;;;;;10.52;3.20;;;19.20;99.90;;;;;;5112721;28;20195;-48
2022/07/26 06:21:01;;;;;;;13.60;3.55;;;19.20;99.90;;;;;;5112638;28;20172;-53
2022/07/26 06:23:26;;;;;;;8.75;3.25;;;19.30;99.90;;;;;;5112730;28;20172;-49
2022/07/26 06:25:52;;;;;;;12.85;3.90;;;19.40;99.90;;;;;;5112600;28;20530;-47
2022/07/26 06:28:18;;;;;;;10.60;3.15;;;19.40;99.90;;;;;;5111980;28;20654;-50
2022/07/26 06:30:44;;;;;;;15.82;4.15;;;19.50;99.90;;;;;;5112798;28;20616;-45
2022/07/26 06:33:10;;;;;;;13.02;3.90;;;19.50;99.90;;;;;;5112438;28;20218;-47
2022/07/26 06:35:37;;;;;;;15.13;3.78;;;19.60;99.90;;;;;;5112415;28;20245;-46
2022/07/26 06:38:04;;;;;;;12.13;3.45;;;19.60;99.90;;;;;;5112659;28;20176;-46
2022/07/26 06:40:30;;;;;;;9.20;3.90;;;19.70;99.90;;;;;;5112414;28;20172;-48
2022/07/26 06:42:56;;;;;;;10.10;3.83;;;19.70;99.90;;;;;;5112324;28;20275;-46
2022/07/26 06:45:21;;;;;;;13.85;4.38;;;20.10;99.90;;;;;;5112353;28;20173;-45
2022/07/26 06:47:47;;;;;;;14.23;4.45;;;20.00;99.90;;;;;;5112675;28;20172;-46
2022/07/26 06:50:12;;;;;;;9.90;5.05;;;19.90;99.90;;;;;;5112249;28;20171;-46
2022/07/26 06:52:38;;;;;;;10.80;5.18;;;20.00;99.90;;;;;;5112241;28;20565;-50
2022/07/26 06:55:04;;;;;;;14.07;5.13;;;20.00;99.90;;;;;;5112167;28;20597;-47
2022/07/26 06:57:30;;;;;;;9.50;3.83;;;20.00;99.90;;;;;;5112241;28;20153;-46
2022/07/26 06:59:56;;;;;;;10.40;4.43;;;20.00;99.90;;;;;;5112265;28;20176;-46
2022/07/26 07:02:22;;;;;;;18.65;5.65;;;19.90;99.90;;;;;;5112161;28;20156;-45
2022/07/26 07:04:47;;;;;;;13.27;5.22;;;19.80;99.90;;;;;;5112697;28;20648;-49
2022/07/26 07:07:13;;;;;;;12.90;4.88;;;19.90;99.90;;;;;;5112265;28;20534;-48
2022/07/26 07:09:39;;;;;;;15.90;4.75;;;19.90;99.90;;;;;;5112057;28;20192;-50
2022/07/26 07:12:06;;;;;;;15.82;6.00;;;19.90;99.90;;;;;;5111960;28;20220;-47
2022/07/26 07:14:32;;;;;;;10.82;4.47;;;19.90;99.90;;;;;;5112139;28;20249;-49
2022/07/26 07:16:58;;;;;;;12.63;5.57;;;19.90;99.90;;;;;;5112076;28;20172;-50
2022/07/26 07:19:23;;;;;;;15.45;5.53;;;19.80;99.90;;;;;;5112016;28;20180;-48
2022/07/26 07:21:50;;;;;;;21.70;6.47;;;19.80;99.90;;;;;;5112408;28;20161;-50
2022/07/26 07:24:17;;;;;;;15.30;5.43;;;19.70;99.90;;;;;;5112142;28;20161;-49
2022/07/26 07:26:43;;;;;;;10.98;5.15;;;19.70;99.90;;;;;;5111969;28;20168;-47
2022/07/26 07:29:11;;;;;;;15.05;6.53;;;19.90;99.90;;;;;;5111997;28;20172;-47
2022/07/26 07:31:37;;;;;;;13.80;6.18;;;19.80;99.90;;;;;;5111878;28;20179;-49
2022/07/26 07:34:03;;;;;;;24.02;7.07;;;19.90;99.90;;;;;;5111884;28;20217;-54
2022/07/26 07:36:28;;;;;;;18.77;8.27;;;20.00;99.90;;;;;;5112099;28;20643;-49
2022/07/26 07:38:54;;;;;;;16.45;7.47;;;20.10;99.90;;;;;;5112835;28;20164;-49
2022/07/26 07:41:19;;;;;;;21.10;7.78;;;20.30;99.90;;;;;;5116066;28;20169;-51
2022/07/26 07:43:45;;;;;;;17.65;7.40;;;20.30;99.90;;;;;;5115927;28;20631;-50
2022/07/26 07:46:11;;;;;;;12.90;6.63;;;20.30;99.90;;;;;;5115667;28;20581;-52
2022/07/26 07:48:39;;;;;;;22.95;7.70;;;20.30;99.90;;;;;;5115552;28;20266;-45
2022/07/26 07:51:06;;;;;;;15.65;7.80;;;20.50;99.90;;;;;;5115624;28;20202;-47
2022/07/26 07:53:31;;;;;;;15.38;7.95;;;20.60;99.90;;;;;;5115450;28;20201;-46
2022/07/26 07:55:57;;;;;;;17.40;7.85;;;20.70;99.90;;;;;;5115427;28;20168;-45
2022/07/26 07:58:23;;;;;;;17.70;10.00;;;20.80;99.90;;;;;;5115671;28;20559;-46
2022/07/26 08:00:48;;;;;;;22.25;9.95;;;20.60;99.90;;;;;;5115670;28;20213;-47
2022/07/26 08:03:14;;;;;;;17.85;9.75;;;20.60;99.90;;;;;;5115273;28;20165;-45
2022/07/26 08:05:40;;;;;;;26.55;10.05;;;20.70;99.90;;;;;;5115521;28;20322;-46
2022/07/26 08:08:05;;;;;;;18.17;8.90;;;21.00;99.90;;;;;;5115184;28;20164;-46
2022/07/26 08:10:31;;;;;;;19.27;10.20;;;21.00;99.90;;;;;;5115152;28;20224;-46
2022/07/26 08:12:56;;;;;;;15.60;9.32;;;21.10;99.90;;;;;;5115094;28;20701;-46
2022/07/26 08:15:22;;;;;;;19.27;9.63;;;21.20;99.90;;;;;;5114995;28;20175;-47
2022/07/26 08:17:49;;;;;;;18.58;9.57;;;21.30;99.90;;;;;;5115368;28;20169;-55
2022/07/26 08:20:14;;;;;;;17.38;9.15;;;21.40;99.90;;;;;;5114934;28;20222;-56
2022/07/26 08:22:40;;;;;;;14.98;9.85;;;21.30;99.90;;;;;;5114871;28;20572;-56
2022/07/26 08:25:07;;;;;;;14.68;9.80;;;21.20;99.90;;;;;;5114814;28;20168;-56
2022/07/26 08:27:32;;;;;;;21.38;9.30;;;21.10;99.90;;;;;;5114776;28;20188;-55
2022/07/26 08:29:58;;;;;;;12.93;9.18;;;21.00;99.90;;;;;;5114768;28;20671;-55
2022/07/26 08:32:23;;;;;;;13.18;9.13;;;21.10;99.90;;;;;;5114666;28;20173;-55
2022/07/26 08:34:49;;;;;;;19.50;9.15;;;21.20;99.90;;;;;;5114862;28;20247;-56
2022/07/26 08:37:14;;;;;;;14.45;8.13;;;21.20;99.90;;;;;;5114855;28;20165;-55
2022/07/26 08:39:40;;;;;;;17.30;9.10;;;21.20;99.90;;;;;;5114573;28;20634;-55
2022/07/26 08:42:15;;;;;;;17.00;9.30;;;21.30;99.90;;;;;;5114499;28;20168;-49
2022/07/26 08:44:43;;;;;;;17.58;8.48;;;21.60;99.90;;;;;;5114456;28;20522;-49
2022/07/26 08:47:11;;;;;;;19.50;8.43;;;21.80;99.90;;;;;;5114369;28;20161;-56
2022/07/26 08:49:36;;;;;;;17.77;8.50;;;21.80;99.90;;;;;;5114303;28;20183;-55
2022/07/26 08:52:03;;;;;;;14.07;8.30;;;21.80;99.90;;;;;;5113465;28;20161;-56
2022/07/26 08:54:29;;;;;;;14.65;8.00;;;22.00;99.90;;;;;;5114200;28;20209;-55
2022/07/26 08:56:54;;;;;;;15.20;7.82;;;22.30;99.90;;;;;;5114318;28;20522;-55
2022/07/26 08:59:20;;;;;;;14.15;7.20;;;22.00;99.90;;;;;;5114177;28;20190;-49
2022/07/26 09:01:58;;;;;;;10.13;6.50;;;22.00;99.90;;;;;;5114619;28;20202;-55
2022/07/26 09:04:27;;;;;;;12.63;6.78;;;22.00;99.90;;;;;;5114338;28;20176;-55
2022/07/26 09:07:17;;;;;;;9.50;5.40;;;22.10;99.90;;;;;;5114276;28;20161;-50
2022/07/26 09:09:57;;;;;;;13.60;5.13;;;22.00;99.90;;;;;;5113691;28;20200;-54
2022/07/26 09:12:24;;;;;;;16.80;5.57;;;22.20;99.90;;;;;;5114044;28;20173;-53
2022/07/26 09:14:50;;;;;;;10.20;5.05;;;22.70;99.90;;;;;;5113813;28;20338;-45
2022/07/26 09:17:19;;;;;;;6.78;5.20;;;23.00;99.90;;;;;;5114469;28;20161;-49
2022/07/26 09:20:02;;;;;;;7.57;5.47;;;23.00;99.90;;;;;;5114112;28;20249;-49
2022/07/26 09:22:28;;;;;;;10.55;5.88;;;23.10;99.90;;;;;;5113815;28;20171;-47
2022/07/26 09:24:54;;;;;;;9.32;5.55;;;23.30;99.90;;;;;;5113949;28;20192;-48
2022/07/26 09:27:19;;;;;;;8.35;5.30;;;23.20;99.90;;;;;;5113906;28;20156;-48
2022/07/26 09:29:46;;;;;;;9.18;5.60;;;23.50;99.90;;;;;;5113898;28;20204;-49
2022/07/26 09:32:19;;;;;;;12.38;5.32;;;24.10;99.90;;;;;;5113513;28;20160;-48
2022/07/26 09:34:47;;;;;;;14.02;5.22;;;24.50;99.90;;;;;;5113326;28;20268;-51
2022/07/26 09:37:13;;;;;;;8.07;5.18;;;24.00;99.90;;;;;;5113466;28;20160;-53
2022/07/26 09:39:56;;;;;;;11.00;4.50;;;23.60;99.90;;;;;;5113617;28;20206;-49
2022/07/26 09:42:23;;;;;;;10.93;4.22;;;23.50;99.90;;;;;;5113524;28;20169;-49
2022/07/26 09:44:49;;;;;;;10.60;3.67;;;24.10;99.90;;;;;;5113600;28;20156;-52
2022/07/26 09:47:14;;;;;;;9.50;3.58;;;23.70;99.90;;;;;;5113182;28;20668;-48
2022/07/26 09:49:41;;;;;;;7.68;3.72;;;23.60;99.90;;;;;;5113204;28;20214;-46
2022/07/26 09:52:17;;;;;;;8.15;3.58;;;24.00;99.90;;;;;;5113129;28;20169;-46
2022/07/26 09:54:47;;;;;;;10.13;3.72;;;24.00;99.90;;;;;;5113284;28;20204;-47
2022/07/26 09:57:18;;;;;;;11.50;4.30;;;24.00;99.90;;;;;;5113031;28;20168;-45
2022/07/26 09:59:44;;;;;;;8.85;4.03;;;24.30;99.90;;;;;;5112982;28;20217;-46
2022/07/26 10:02:12;;;;;;;8.10;4.07;;;24.30;99.90;;;;;;5112852;28;20160;-48
2022/07/26 10:04:39;;;;;;;9.57;3.30;;;24.70;99.90;;;;;;5113156;28;20180;-46
2022/07/26 10:07:05;;;;;;;7.85;3.20;;;24.40;99.90;;;;;;5112971;28;20160;-46
2022/07/26 10:09:55;;;;;;;7.47;3.88;;;24.40;99.90;;;;;;5113005;28;20164;-46
2022/07/26 10:12:25;;;;;;;6.60;3.38;;;24.30;99.90;;;;;;5113068;28;20666;-45
2022/07/26 10:14:51;;;;;;;8.25;3.30;;;24.20;99.90;;;;;;5112746;28;20208;-46
2022/07/26 10:17:28;;;;;;;6.35;2.80;;;24.40;99.90;;;;;;5113282;28;20175;-47
2022/07/26 10:20:00;;;;;;;6.85;3.25;;;24.30;99.90;;;;;;5112779;28;20642;-46
2022/07/26 10:22:45;;;;;;;7.30;3.20;;;24.60;99.90;;;;;;5112653;28;20252;-45
2022/07/26 10:25:16;;;;;;;8.07;2.75;;;24.70;99.90;;;;;;5112890;28;20160;-45
2022/07/26 10:27:46;;;;;;;7.22;2.83;;;25.40;99.90;;;;;;5112571;28;20168;-46
2022/07/26 10:30:17;;;;;;;5.78;2.85;;;25.10;99.90;;;;;;5112501;28;20164;-45
2022/07/26 10:32:55;;;;;;;6.18;2.97;;;25.50;99.90;;;;;;5112532;28;20167;-45
2022/07/26 10:35:33;;;;;;;6.97;3.55;;;25.50;99.90;;;;;;5112586;28;20199;-46
2022/07/26 10:38:10;;;;;;;8.45;3.35;;;25.10;99.90;;;;;;5112459;28;20167;-47
2022/07/26 10:40:38;;;;;;;10.88;2.90;;;24.90;99.90;;;;;;5112354;28;20210;-47
2022/07/26 10:43:12;;;;;;;10.18;2.90;;;24.60;99.90;;;;;;5112462;28;20171;-44
2022/07/26 10:45:38;;;;;;;12.57;3.45;;;24.50;99.90;;;;;;5112276;28;20178;-46
2022/07/26 10:48:13;;;;;;;5.55;2.55;;;24.80;99.90;;;;;;5112380;28;20164;-48
2022/07/26 10:50:44;;;;;;;9.57;2.63;;;25.20;99.90;;;;;;5112277;28;20176;-47
2022/07/26 10:53:15;;;;;;;6.13;3.10;;;25.20;99.90;;;;;;5112219;28;20160;-45
2022/07/26 10:55:50;;;;;;;9.15;2.65;;;25.30;99.90;;;;;;5112272;28;20160;-47
2022/07/26 10:58:16;;;;;;;4.93;2.30;;;25.10;99.90;;;;;;5112884;28;20213;-48
2022/07/26 11:00:54;;;;;;;7.88;2.47;;;25.30;99.90;;;;;;5112504;28;20168;-47
2022/07/26 11:03:20;;;;;;;5.00;2.65;;;25.00;99.90;;;;;;5112452;28;20172;-47
2022/07/26 11:05:46;;;;;;;4.43;2.72;;;24.80;99.90;;;;;;5112547;28;20194;-46
2022/07/26 11:08:11;;;;;;;6.60;2.88;;;24.30;99.90;;;;;;5112219;28;20164;-47
2022/07/26 11:10:42;;;;;;;6.47;2.97;;;24.10;99.90;;;;;;5111952;28;20217;-46
2022/07/26 11:13:15;;;;;;;5.45;2.28;;;23.90;99.90;;;;;;5112034;28;20168;-46
2022/07/26 11:15:45;;;;;;;7.22;3.28;;;23.70;99.90;;;;;;5116237;28;20164;-46
2022/07/26 11:18:12;;;;;;;3.92;2.50;;;23.50;99.90;;;;;;5116365;28;20169;-47
2022/07/26 11:20:38;;;;;;;4.63;2.10;;;23.70;99.90;;;;;;5116071;28;20172;-46
2022/07/26 11:23:19;;;;;;;4.88;2.40;;;23.30;99.90;;;;;;5116020;28;20218;-46
2022/07/26 11:26:16;;;;;;;4.03;2.45;;;23.30;99.90;;;;;;5116404;28;20221;-45
2022/07/26 11:28:54;;;;;;;7.82;2.63;;;23.10;99.90;;;;;;5116272;28;20171;-46
2022/07/26 11:31:25;;;;;;;4.03;2.65;;;23.20;99.90;;;;;;5116181;28;20531;-48
2022/07/26 11:33:52;;;;;;;9.15;2.17;;;23.20;99.90;;;;;;5115852;28;20196;-50
2022/07/26 11:36:33;;;;;;;3.13;1.77;;;23.60;99.90;;;;;;5116116;28;20698;-46
2022/07/26 11:38:59;;;;;;;2.75;2.00;;;23.40;99.90;;;;;;5115742;28;20226;-49
2022/07/26 11:41:27;;;;;;;3.83;1.85;;;23.30;99.90;;;;;;5115971;28;20169;-56
2022/07/26 11:43:55;;;;;;;5.30;2.30;;;23.40;99.90;;;;;;5097451;28;20214;-55
2022/07/26 11:46:20;;;;;;;3.67;2.30;;;23.50;99.90;;;;;;5115857;28;20214;-55
2022/07/26 11:48:51;;;;;;;3.95;2.53;;;23.70;99.90;;;;;;5115899;28;20560;-56
2022/07/26 11:51:22;;;;;;;4.47;2.50;;;24.10;99.90;;;;;;5115844;28;20710;-55
2022/07/26 11:53:48;;;;;;;12.07;2.60;;;24.20;99.90;;;;;;5115785;28;20690;-55
2022/07/26 11:56:19;;;;;;;9.70;2.95;;;24.40;99.90;;;;;;5115749;28;20171;-54
2022/07/26 11:58:47;;;;;;;6.10;2.63;;;24.40;99.90;;;;;;5115909;28;20172;-53
2022/07/26 12:01:18;;;;;;;7.60;2.90;;;24.30;99.90;;;;;;5115588;28;20228;-55
2022/07/26 12:03:46;;;;;;;5.57;2.70;;;24.30;99.90;;;;;;5115841;28;20179;-55
2022/07/26 12:06:16;;;;;;;6.53;2.65;;;24.00;99.90;;;;;;5115215;28;20172;-56
2022/07/26 12:08:55;;;;;;;4.45;2.70;;;23.80;99.90;;;;;;5115189;28;20160;-56
2022/07/26 12:11:23;;;;;;;9.18;3.25;;;23.50;99.90;;;;;;5115108;28;20240;-55
2022/07/26 12:13:57;;;;;;;3.97;2.70;;;23.50;99.90;;;;;;5115309;28;20533;-49
2022/07/26 12:16:33;;;;;;;6.00;3.00;;;23.90;99.90;;;;;;5115264;28;20168;-55
2022/07/26 12:18:58;;;;;;;4.50;2.90;;;23.90;99.90;;;;;;5115037;28;20165;-56
2022/07/26 12:21:46;;;;;;;4.93;3.00;;;24.00;99.90;;;;;;5114948;28;20628;-55
2022/07/26 12:24:33;;;;;;;7.72;3.33;;;24.10;99.90;;;;;;5114920;28;20164;-55
2022/07/26 12:27:21;;;;;;;6.53;4.15;;;24.50;99.90;;;;;;5113843;28;20164;-56
2022/07/26 12:30:00;;;;;;;6.07;3.80;;;24.60;99.90;;;;;;5115115;28;20165;-56
2022/07/26 12:32:32;;;;;;;8.18;2.60;;;24.80;99.90;;;;;;5114739;28;20160;-55
2022/07/26 12:34:59;;;;;;;7.50;2.28;;;25.20;99.90;;;;;;5114653;28;20260;-53
2022/07/26 12:37:28;;;;;;;4.32;2.05;;;25.50;99.90;;;;;;5114689;28;20164;-50
2022/07/26 12:40:21;;;;;;;5.80;1.85;;;25.10;99.90;;;;;;5114842;28;20216;-47
2022/07/26 12:42:49;;;;;;;2.55;1.70;;;24.80;99.90;;;;;;5106187;28;20172;-46
2022/07/26 12:45:18;;;;;;;2.72;1.88;;;24.70;99.90;;;;;;5114837;28;20247;-47